KPIR

Pierre Regional Airport

Pierre, South Dakota, USA
METAR KPIR 100653Z AUTO 22006KT 10SM CLR M07/M09 A3022 RMK AO2 SLP259 T10721089
Observed Flight Rules
Dec-10 @ 06:53 UTC (29 minutes ago) Visual Flight Rules
Wind Visibility Clouds
220° at 6 knots 10 miles
  • Clear skies
Temperatures Readings
Current -7°C / 19°F
Dewpoint -9°C / 16°F
Humidity 86%
Altimeter 30.22" Hg
Pressure 1025.9 hPa
Elevation 526
METAR KPIR 100653Z AUTO 22006KT 10SM CLR M07/M09 A3022 RMK AO2 SLP259 T10721089
Observed Flight Rules
Dec-10 @ 06:53 UTC
(29 minutes ago)
VFR
Wind Visibility
220° at 6 knots 10 miles
Clouds
  • Clear skies
Temperature Dewpoint
-7°C / 19°F -9°C / 16°F
Humidity Altimeter Pressure
86% 30.22" Hg 1025.9 hPa